sensor_id;sensor_type;location;lat;lon;timestamp;temperature;humidity
20680;DHT22;10499;47.494;7.608;2023-02-25T00:02:07;9.50;99.90
20680;DHT22;10499;47.494;7.608;2023-02-25T00:04:33;9.50;99.90
20680;DHT22;10499;47.494;7.608;2023-02-25T00:06:59;9.40;99.90
20680;DHT22;10499;47.494;7.608;2023-02-25T00:09:25;9.40;99.90
20680;DHT22;10499;47.494;7.608;2023-02-25T00:11:51;9.30;99.90
20680;DHT22;10499;47.494;7.608;2023-02-25T00:14:17;9.30;99.90
20680;DHT22;10499;47.494;7.608;2023-02-25T00:16:42;9.40;99.90
20680;DHT22;10499;47.494;7.608;2023-02-25T00:19:08;9.30;99.90
20680;DHT22;10499;47.494;7.608;2023-02-25T00:21:35;9.20;99.90
20680;DHT22;10499;47.494;7.608;2023-02-25T00:24:01;9.20;99.90
20680;DHT22;10499;47.494;7.608;2023-02-25T00:26:28;9.20;99.90
20680;DHT22;10499;47.494;7.608;2023-02-25T00:28:53;9.30;99.90
20680;DHT22;10499;47.494;7.608;2023-02-25T00:31:21;9.10;99.90
20680;DHT22;10499;47.494;7.608;2023-02-25T00:33:48;9.10;99.90
20680;DHT22;10499;47.494;7.608;2023-02-25T00:36:18;9.10;99.90
20680;DHT22;10499;47.494;7.608;2023-02-25T00:38:46;9.10;99.90
20680;DHT22;10499;47.494;7.608;2023-02-25T00:41:14;8.90;99.90
20680;DHT22;10499;47.494;7.608;2023-02-25T00:43:42;9.00;99.90
20680;DHT22;10499;47.494;7.608;2023-02-25T00:46:09;9.10;99.90
20680;DHT22;10499;47.494;7.608;2023-02-25T00:48:36;9.10;99.90
20680;DHT22;10499;47.494;7.608;2023-02-25T00:53:32;9.20;99.90
20680;DHT22;10499;47.494;7.608;2023-02-25T00:56:01;9.20;99.90
20680;DHT22;10499;47.494;7.608;2023-02-25T00:58:27;9.30;99.90
20680;DHT22;10499;47.494;7.608;2023-02-25T01:00:53;9.20;99.90
20680;DHT22;10499;47.494;7.608;2023-02-25T01:03:18;9.20;99.90
20680;DHT22;10499;47.494;7.608;2023-02-25T01:05:44;9.10;99.90
20680;DHT22;10499;47.494;7.608;2023-02-25T01:08:15;9.10;99.90
20680;DHT22;10499;47.494;7.608;2023-02-25T01:10:42;9.30;99.90
20680;DHT22;10499;47.494;7.608;2023-02-25T01:13:08;9.20;99.90
20680;DHT22;10499;47.494;7.608;2023-02-25T01:15:33;9.20;99.90
20680;DHT22;10499;47.494;7.608;2023-02-25T01:17:59;9.10;99.90
20680;DHT22;10499;47.494;7.608;2023-02-25T01:20:25;9.00;99.90
20680;DHT22;10499;47.494;7.608;2023-02-25T01:22:50;8.90;99.90
20680;DHT22;10499;47.494;7.608;2023-02-25T01:25:16;9.00;99.90
20680;DHT22;10499;47.494;7.608;2023-02-25T01:27:43;9.00;99.90
20680;DHT22;10499;47.494;7.608;2023-02-25T01:30:09;8.90;99.90
20680;DHT22;10499;47.494;7.608;2023-02-25T01:32:37;8.80;99.90
20680;DHT22;10499;47.494;7.608;2023-02-25T01:35:03;8.80;99.90
20680;DHT22;10499;47.494;7.608;2023-02-25T01:37:29;8.80;99.90
20680;DHT22;10499;47.494;7.608;2023-02-25T01:39:55;8.80;99.90
20680;DHT22;10499;47.494;7.608;2023-02-25T01:42:21;8.90;99.90
20680;DHT22;10499;47.494;7.608;2023-02-25T01:48:02;9.00;99.90
20680;DHT22;10499;47.494;7.608;2023-02-25T01:50:41;9.00;99.90
20680;DHT22;10499;47.494;7.608;2023-02-25T01:53:08;8.90;99.90
20680;DHT22;10499;47.494;7.608;2023-02-25T01:55:34;8.90;99.90
20680;DHT22;10499;47.494;7.608;2023-02-25T01:58:00;8.80;99.90
20680;DHT22;10499;47.494;7.608;2023-02-25T02:00:28;8.70;99.90
20680;DHT22;10499;47.494;7.608;2023-02-25T02:02:56;8.50;99.90
20680;DHT22;10499;47.494;7.608;2023-02-25T02:05:24;8.50;99.90
20680;DHT22;10499;47.494;7.608;2023-02-25T02:07:54;8.60;99.90
20680;DHT22;10499;47.494;7.608;2023-02-25T02:10:20;8.50;99.90
20680;DHT22;10499;47.494;7.608;2023-02-25T02:12:46;8.50;99.90
20680;DHT22;10499;47.494;7.608;2023-02-25T02:15:14;8.50;99.90
20680;DHT22;10499;47.494;7.608;2023-02-25T02:17:46;8.40;99.90
20680;DHT22;10499;47.494;7.608;2023-02-25T02:20:25;8.30;99.90
20680;DHT22;10499;47.494;7.608;2023-02-25T02:25:58;8.20;99.90
20680;DHT22;10499;47.494;7.608;2023-02-25T02:40:18;8.10;99.90
20680;DHT22;10499;47.494;7.608;2023-02-25T02:45:57;8.30;99.90
20680;DHT22;10499;47.494;7.608;2023-02-25T02:50:59;8.60;99.90
20680;DHT22;10499;47.494;7.608;2023-02-25T02:53:41;8.60;99.90
20680;DHT22;10499;47.494;7.608;2023-02-25T02:56:12;8.50;99.90
20680;DHT22;10499;47.494;7.608;2023-02-25T02:59:07;8.50;99.90
20680;DHT22;10499;47.494;7.608;2023-02-25T03:01:45;8.60;99.90
20680;DHT22;10499;47.494;7.608;2023-02-25T03:04:18;8.50;99.90
20680;DHT22;10499;47.494;7.608;2023-02-25T03:06:48;8.20;99.90
20680;DHT22;10499;47.494;7.608;2023-02-25T03:09:21;8.30;99.90
20680;DHT22;10499;47.494;7.608;2023-02-25T03:11:48;8.40;99.90
20680;DHT22;10499;47.494;7.608;2023-02-25T03:14:13;8.50;99.90
20680;DHT22;10499;47.494;7.608;2023-02-25T03:16:50;8.50;99.90
20680;DHT22;10499;47.494;7.608;2023-02-25T03:19:38;8.50;99.90
20680;DHT22;10499;47.494;7.608;2023-02-25T03:22:11;8.50;99.90
20680;DHT22;10499;47.494;7.608;2023-02-25T03:24:50;8.40;99.90
20680;DHT22;10499;47.494;7.608;2023-02-25T03:27:25;8.50;99.90
20680;DHT22;10499;47.494;7.608;2023-02-25T03:29:52;8.30;99.90
20680;DHT22;10499;47.494;7.608;2023-02-25T03:32:18;8.40;99.90
20680;DHT22;10499;47.494;7.608;2023-02-25T03:34:48;8.30;99.90
20680;DHT22;10499;47.494;7.608;2023-02-25T03:37:22;8.30;99.90
20680;DHT22;10499;47.494;7.608;2023-02-25T03:39:53;8.10;99.90
20680;DHT22;10499;47.494;7.608;2023-02-25T03:42:27;8.30;99.90
20680;DHT22;10499;47.494;7.608;2023-02-25T03:44:55;8.30;99.90
20680;DHT22;10499;47.494;7.608;2023-02-25T03:47:25;8.30;99.90
20680;DHT22;10499;47.494;7.608;2023-02-25T03:52:30;8.30;99.90
20680;DHT22;10499;47.494;7.608;2023-02-25T03:54:57;8.30;99.90
20680;DHT22;10499;47.494;7.608;2023-02-25T03:57:26;8.30;99.90
20680;DHT22;10499;47.494;7.608;2023-02-25T03:59:58;8.30;99.90
20680;DHT22;10499;47.494;7.608;2023-02-25T04:02:25;8.20;99.90
20680;DHT22;10499;47.494;7.608;2023-02-25T04:04:52;8.30;99.90
20680;DHT22;10499;47.494;7.608;2023-02-25T04:07:18;8.30;99.90
20680;DHT22;10499;47.494;7.608;2023-02-25T04:09:44;8.00;99.90
20680;DHT22;10499;47.494;7.608;2023-02-25T04:12:09;8.00;99.90
20680;DHT22;10499;47.494;7.608;2023-02-25T04:14:35;8.00;99.90
20680;DHT22;10499;47.494;7.608;2023-02-25T04:17:01;8.00;99.90
20680;DHT22;10499;47.494;7.608;2023-02-25T04:19:29;8.10;99.90
20680;DHT22;10499;47.494;7.608;2023-02-25T04:21:55;8.00;99.90
20680;DHT22;10499;47.494;7.608;2023-02-25T04:24:20;8.00;99.90
20680;DHT22;10499;47.494;7.608;2023-02-25T04:26:46;7.90;99.90
20680;DHT22;10499;47.494;7.608;2023-02-25T04:29:11;7.90;99.90
20680;DHT22;10499;47.494;7.608;2023-02-25T04:31:37;7.90;99.90
20680;DHT22;10499;47.494;7.608;2023-02-25T04:34:03;7.80;99.90
20680;DHT22;10499;47.494;7.608;2023-02-25T04:36:30;7.90;99.90
20680;DHT22;10499;47.494;7.608;2023-02-25T04:38:58;7.90;99.90
20680;DHT22;10499;47.494;7.608;2023-02-25T04:41:28;7.80;99.90
20680;DHT22;10499;47.494;7.608;2023-02-25T04:43:54;7.80;99.90
20680;DHT22;10499;47.494;7.608;2023-02-25T04:46:20;7.80;99.90
20680;DHT22;10499;47.494;7.608;2023-02-25T04:48:45;7.90;99.90
20680;DHT22;10499;47.494;7.608;2023-02-25T04:51:11;7.90;99.90
20680;DHT22;10499;47.494;7.608;2023-02-25T04:53:37;7.90;99.90
20680;DHT22;10499;47.494;7.608;2023-02-25T04:56:07;7.80;99.90
20680;DHT22;10499;47.494;7.608;2023-02-25T04:58:33;7.70;99.90
20680;DHT22;10499;47.494;7.608;2023-02-25T05:01:01;7.70;99.90
20680;DHT22;10499;47.494;7.608;2023-02-25T05:03:27;7.80;99.90
20680;DHT22;10499;47.494;7.608;2023-02-25T05:05:53;8.00;99.90
20680;DHT22;10499;47.494;7.608;2023-02-25T05:08:20;8.00;99.90
20680;DHT22;10499;47.494;7.608;2023-02-25T05:10:46;7.80;99.90
20680;DHT22;10499;47.494;7.608;2023-02-25T05:13:12;7.80;99.90
20680;DHT22;10499;47.494;7.608;2023-02-25T05:15:37;7.90;99.90
20680;DHT22;10499;47.494;7.608;2023-02-25T05:18:03;7.90;99.90
20680;DHT22;10499;47.494;7.608;2023-02-25T05:20:29;7.90;99.90
20680;DHT22;10499;47.494;7.608;2023-02-25T05:22:54;7.90;99.90
20680;DHT22;10499;47.494;7.608;2023-02-25T05:25:20;8.00;99.90
20680;DHT22;10499;47.494;7.608;2023-02-25T05:27:46;7.90;99.90
20680;DHT22;10499;47.494;7.608;2023-02-25T05:30:12;7.90;99.90
20680;DHT22;10499;47.494;7.608;2023-02-25T05:32:38;7.90;99.90
20680;DHT22;10499;47.494;7.608;2023-02-25T05:35:05;7.90;99.90
20680;DHT22;10499;47.494;7.608;2023-02-25T05:37:33;7.90;99.90
20680;DHT22;10499;47.494;7.608;2023-02-25T05:39:59;7.90;99.90
20680;DHT22;10499;47.494;7.608;2023-02-25T05:42:26;7.90;99.90
20680;DHT22;10499;47.494;7.608;2023-02-25T05:44:52;7.90;99.90
20680;DHT22;10499;47.494;7.608;2023-02-25T05:47:17;7.90;99.90
20680;DHT22;10499;47.494;7.608;2023-02-25T05:49:43;7.90;99.90
20680;DHT22;10499;47.494;7.608;2023-02-25T05:52:10;7.90;99.90
20680;DHT22;10499;47.494;7.608;2023-02-25T05:54:35;7.80;99.90
20680;DHT22;10499;47.494;7.608;2023-02-25T05:57:01;7.80;99.90
20680;DHT22;10499;47.494;7.608;2023-02-25T05:59:27;7.80;99.90
20680;DHT22;10499;47.494;7.608;2023-02-25T06:01:52;7.80;99.90
20680;DHT22;10499;47.494;7.608;2023-02-25T06:04:18;7.70;99.90
20680;DHT22;10499;47.494;7.608;2023-02-25T06:06:44;7.70;99.90
20680;DHT22;10499;47.494;7.608;2023-02-25T06:09:17;7.80;99.90
20680;DHT22;10499;47.494;7.608;2023-02-25T06:11:44;7.80;99.90
20680;DHT22;10499;47.494;7.608;2023-02-25T06:14:10;7.80;99.90
20680;DHT22;10499;47.494;7.608;2023-02-25T06:16:38;7.80;99.90
20680;DHT22;10499;47.494;7.608;2023-02-25T06:19:04;7.80;99.90
20680;DHT22;10499;47.494;7.608;2023-02-25T06:21:32;7.60;99.90
20680;DHT22;10499;47.494;7.608;2023-02-25T06:23:58;7.60;99.90
20680;DHT22;10499;47.494;7.608;2023-02-25T06:26:25;7.60;99.90
20680;DHT22;10499;47.494;7.608;2023-02-25T06:28:51;7.60;99.90
20680;DHT22;10499;47.494;7.608;2023-02-25T06:31:18;7.60;99.90
20680;DHT22;10499;47.494;7.608;2023-02-25T06:33:44;7.60;99.90
20680;DHT22;10499;47.494;7.608;2023-02-25T06:36:11;7.60;99.90
20680;DHT22;10499;47.494;7.608;2023-02-25T06:38:37;7.60;99.90
20680;DHT22;10499;47.494;7.608;2023-02-25T06:41:07;7.60;99.90
20680;DHT22;10499;47.494;7.608;2023-02-25T06:43:33;7.70;99.90
20680;DHT22;10499;47.494;7.608;2023-02-25T06:46:03;7.70;99.90
20680;DHT22;10499;47.494;7.608;2023-02-25T09:22:37;7.70;99.90
20680;DHT22;10499;47.494;7.608;2023-02-25T09:25:05;8.30;91.00
20680;DHT22;10499;47.494;7.608;2023-02-25T09:27:31;8.40;90.30
20680;DHT22;10499;47.494;7.608;2023-02-25T09:29:58;8.30;86.40
20680;DHT22;10499;47.494;7.608;2023-02-25T09:32:23;8.10;86.30
20680;DHT22;10499;47.494;7.608;2023-02-25T09:34:49;8.20;85.90
20680;DHT22;10499;47.494;7.608;2023-02-25T09:37:16;8.40;85.60
20680;DHT22;10499;47.494;7.608;2023-02-25T09:39:44;8.50;86.10
20680;DHT22;10499;47.494;7.608;2023-02-25T10:12:58;8.80;80.00
20680;DHT22;10499;47.494;7.608;2023-02-25T10:21:17;9.20;75.50
20680;DHT22;10499;47.494;7.608;2023-02-25T10:24:09;9.20;76.40
20680;DHT22;10499;47.494;7.608;2023-02-25T10:26:40;9.00;74.90
20680;DHT22;10499;47.494;7.608;2023-02-25T10:29:32;9.10;75.90
20680;DHT22;10499;47.494;7.608;2023-02-25T10:31:59;9.20;74.20
20680;DHT22;10499;47.494;7.608;2023-02-25T10:34:36;9.00;74.70
20680;DHT22;10499;47.494;7.608;2023-02-25T10:37:04;9.00;75.20
20680;DHT22;10499;47.494;7.608;2023-02-25T10:39:31;9.00;76.70
20680;DHT22;10499;47.494;7.608;2023-02-25T10:41:58;8.90;74.80
20680;DHT22;10499;47.494;7.608;2023-02-25T10:44:23;8.80;75.00
20680;DHT22;10499;47.494;7.608;2023-02-25T10:46:56;8.80;74.50
20680;DHT22;10499;47.494;7.608;2023-02-25T10:49:25;8.70;75.40
20680;DHT22;10499;47.494;7.608;2023-02-25T10:57:18;8.50;75.20
20680;DHT22;10499;47.494;7.608;2023-02-25T11:00:02;8.30;74.70
20680;DHT22;10499;47.494;7.608;2023-02-25T11:02:30;8.50;74.90
20680;DHT22;10499;47.494;7.608;2023-02-25T11:04:56;8.50;75.60
20680;DHT22;10499;47.494;7.608;2023-02-25T11:07:38;8.30;75.70
20680;DHT22;10499;47.494;7.608;2023-02-25T11:10:15;8.30;75.80
20680;DHT22;10499;47.494;7.608;2023-02-25T11:12:45;8.30;75.10
20680;DHT22;10499;47.494;7.608;2023-02-25T11:15:38;8.40;74.70
20680;DHT22;10499;47.494;7.608;2023-02-25T11:20:54;8.30;73.90
20680;DHT22;10499;47.494;7.608;2023-02-25T11:23:34;8.30;75.00
20680;DHT22;10499;47.494;7.608;2023-02-25T11:26:01;8.30;76.30
20680;DHT22;10499;47.494;7.608;2023-02-25T11:28:39;8.30;75.90
20680;DHT22;10499;47.494;7.608;2023-02-25T11:31:17;8.10;76.40
20680;DHT22;10499;47.494;7.608;2023-02-25T11:34:06;8.20;75.70
20680;DHT22;10499;47.494;7.608;2023-02-25T11:36:38;8.00;76.50
20680;DHT22;10499;47.494;7.608;2023-02-25T11:41:43;8.10;77.50
20680;DHT22;10499;47.494;7.608;2023-02-25T11:47:05;8.30;76.70
20680;DHT22;10499;47.494;7.608;2023-02-25T11:58:07;8.50;75.00
20680;DHT22;10499;47.494;7.608;2023-02-25T12:00:51;8.50;74.10
20680;DHT22;10499;47.494;7.608;2023-02-25T12:08:36;8.40;73.30
20680;DHT22;10499;47.494;7.608;2023-02-25T12:20:21;8.60;72.50
20680;DHT22;10499;47.494;7.608;2023-02-25T12:23:04;8.40;72.60
20680;DHT22;10499;47.494;7.608;2023-02-25T12:28:41;8.40;72.10
20680;DHT22;10499;47.494;7.608;2023-02-25T12:34:24;8.20;72.00
20680;DHT22;10499;47.494;7.608;2023-02-25T12:37:15;8.30;72.40
20680;DHT22;10499;47.494;7.608;2023-02-25T12:42:54;8.20;72.80
20680;DHT22;10499;47.494;7.608;2023-02-25T13:05:53;8.50;71.10
20680;DHT22;10499;47.494;7.608;2023-02-25T13:11:26;8.50;72.40
20680;DHT22;10499;47.494;7.608;2023-02-25T13:28:15;9.00;70.80
20680;DHT22;10499;47.494;7.608;2023-02-25T13:31:17;8.80;69.60
20680;DHT22;10499;47.494;7.608;2023-02-25T13:34:10;9.10;69.10
20680;DHT22;10499;47.494;7.608;2023-02-25T13:50:36;9.10;68.00
20680;DHT22;10499;47.494;7.608;2023-02-25T13:59:05;8.60;69.40
20680;DHT22;10499;47.494;7.608;2023-02-25T14:02:12;8.70;69.00
20680;DHT22;10499;47.494;7.608;2023-02-25T14:13:41;8.10;69.90
20680;DHT22;10499;47.494;7.608;2023-02-25T14:16:48;7.90;70.50
20680;DHT22;10499;47.494;7.608;2023-02-25T14:24:41;8.20;69.60
20680;DHT22;10499;47.494;7.608;2023-02-25T14:30:16;8.40;69.10
20680;DHT22;10499;47.494;7.608;2023-02-25T14:35:44;8.40;69.10
20680;DHT22;10499;47.494;7.608;2023-02-25T14:38:13;8.70;68.40
20680;DHT22;10499;47.494;7.608;2023-02-25T14:40:45;8.90;67.60
20680;DHT22;10499;47.494;7.608;2023-02-25T14:43:27;8.80;67.80
20680;DHT22;10499;47.494;7.608;2023-02-25T14:46:02;8.90;67.80
20680;DHT22;10499;47.494;7.608;2023-02-25T14:48:31;9.00;67.70
20680;DHT22;10499;47.494;7.608;2023-02-25T15:03:09;9.70;64.40
20680;DHT22;10499;47.494;7.608;2023-02-25T15:22:31;8.80;68.70
20680;DHT22;10499;47.494;7.608;2023-02-25T15:27:52;9.30;68.60
20680;DHT22;10499;47.494;7.608;2023-02-25T15:30:21;9.80;67.10
20680;DHT22;10499;47.494;7.608;2023-02-25T15:38:18;9.50;65.70
20680;DHT22;10499;47.494;7.608;2023-02-25T15:40:52;9.30;67.00
20680;DHT22;10499;47.494;7.608;2023-02-25T15:45:50;8.80;67.50
20680;DHT22;10499;47.494;7.608;2023-02-25T16:03:45;9.80;62.50
20680;DHT22;10499;47.494;7.608;2023-02-25T16:06:23;9.80;62.70
20680;DHT22;10499;47.494;7.608;2023-02-25T16:14:03;9.90;62.70
20680;DHT22;10499;47.494;7.608;2023-02-25T16:16:31;9.80;62.90
20680;DHT22;10499;47.494;7.608;2023-02-25T16:18:58;9.50;63.60
20680;DHT22;10499;47.494;7.608;2023-02-25T16:21:30;9.50;64.40
20680;DHT22;10499;47.494;7.608;2023-02-25T16:24:09;9.30;65.20
20680;DHT22;10499;47.494;7.608;2023-02-25T16:26:42;9.00;66.00
20680;DHT22;10499;47.494;7.608;2023-02-25T16:32:01;8.70;66.40
20680;DHT22;10499;47.494;7.608;2023-02-25T16:34:48;8.50;66.80
20680;DHT22;10499;47.494;7.608;2023-02-25T16:40:21;8.40;66.80
20680;DHT22;10499;47.494;7.608;2023-02-25T16:42:49;8.30;66.50
20680;DHT22;10499;47.494;7.608;2023-02-25T16:45:28;7.90;66.40
20680;DHT22;10499;47.494;7.608;2023-02-25T16:47:58;7.90;67.40
20680;DHT22;10499;47.494;7.608;2023-02-25T16:50:26;7.80;67.20
20680;DHT22;10499;47.494;7.608;2023-02-25T16:52:53;7.70;67.90
20680;DHT22;10499;47.494;7.608;2023-02-25T16:55:25;7.50;68.10
20680;DHT22;10499;47.494;7.608;2023-02-25T16:58:18;7.40;68.40
20680;DHT22;10499;47.494;7.608;2023-02-25T17:00:53;7.20;68.40
20680;DHT22;10499;47.494;7.608;2023-02-25T17:03:22;7.10;68.90
20680;DHT22;10499;47.494;7.608;2023-02-25T17:06:04;7.10;69.00
20680;DHT22;10499;47.494;7.608;2023-02-25T17:08:31;7.10;70.10
20680;DHT22;10499;47.494;7.608;2023-02-25T17:10:58;7.20;69.20
20680;DHT22;10499;47.494;7.608;2023-02-25T17:13:28;7.20;69.20
20680;DHT22;10499;47.494;7.608;2023-02-25T17:15:56;7.20;69.30
20680;DHT22;10499;47.494;7.608;2023-02-25T17:18:28;7.20;69.30
20680;DHT22;10499;47.494;7.608;2023-02-25T17:21:13;7.20;69.60
20680;DHT22;10499;47.494;7.608;2023-02-25T17:23:41;7.20;69.30
20680;DHT22;10499;47.494;7.608;2023-02-25T17:26:11;7.10;70.00
20680;DHT22;10499;47.494;7.608;2023-02-25T17:28:38;7.20;69.90
20680;DHT22;10499;47.494;7.608;2023-02-25T17:31:15;7.10;70.40
20680;DHT22;10499;47.494;7.608;2023-02-25T17:33:51;7.10;70.90
20680;DHT22;10499;47.494;7.608;2023-02-25T17:36:34;7.20;70.70
20680;DHT22;10499;47.494;7.608;2023-02-25T17:39:20;7.20;70.60
20680;DHT22;10499;47.494;7.608;2023-02-25T17:41:47;7.20;71.10
20680;DHT22;10499;47.494;7.608;2023-02-25T17:44:48;7.20;71.10
20680;DHT22;10499;47.494;7.608;2023-02-25T17:47:26;7.20;71.30
20680;DHT22;10499;47.494;7.608;2023-02-25T17:49:52;7.20;72.40
20680;DHT22;10499;47.494;7.608;2023-02-25T17:52:24;7.20;72.80
20680;DHT22;10499;47.494;7.608;2023-02-25T17:55:00;7.20;72.70
20680;DHT22;10499;47.494;7.608;2023-02-25T17:57:29;7.20;72.00
20680;DHT22;10499;47.494;7.608;2023-02-25T18:00:11;7.30;72.30
20680;DHT22;10499;47.494;7.608;2023-02-25T18:02:41;7.20;72.40
20680;DHT22;10499;47.494;7.608;2023-02-25T18:07:41;7.10;76.10
20680;DHT22;10499;47.494;7.608;2023-02-25T18:12:47;7.10;77.10
20680;DHT22;10499;47.494;7.608;2023-02-25T18:15:17;7.00;76.70
20680;DHT22;10499;47.494;7.608;2023-02-25T18:17:48;7.00;75.30
20680;DHT22;10499;47.494;7.608;2023-02-25T18:20:41;7.00;77.20
20680;DHT22;10499;47.494;7.608;2023-02-25T18:25:41;6.90;78.80
20680;DHT22;10499;47.494;7.608;2023-02-25T18:28:15;6.90;78.50
20680;DHT22;10499;47.494;7.608;2023-02-25T18:30:42;6.90;78.00
20680;DHT22;10499;47.494;7.608;2023-02-25T18:33:08;6.90;77.20
20680;DHT22;10499;47.494;7.608;2023-02-25T18:35:38;7.00;76.90
20680;DHT22;10499;47.494;7.608;2023-02-25T18:38:05;6.90;74.40
20680;DHT22;10499;47.494;7.608;2023-02-25T18:40:32;6.90;73.00
20680;DHT22;10499;47.494;7.608;2023-02-25T18:43:00;7.00;71.80
20680;DHT22;10499;47.494;7.608;2023-02-25T18:45:27;7.00;73.60
20680;DHT22;10499;47.494;7.608;2023-02-25T18:47:54;6.90;76.30
20680;DHT22;10499;47.494;7.608;2023-02-25T18:50:21;6.80;78.80
20680;DHT22;10499;47.494;7.608;2023-02-25T18:52:47;6.80;77.10
20680;DHT22;10499;47.494;7.608;2023-02-25T18:55:23;6.90;76.40
20680;DHT22;10499;47.494;7.608;2023-02-25T18:57:49;6.90;74.80
20680;DHT22;10499;47.494;7.608;2023-02-25T19:00:17;6.90;75.70
20680;DHT22;10499;47.494;7.608;2023-02-25T19:05:11;6.40;75.20
20680;DHT22;10499;47.494;7.608;2023-02-25T19:07:37;6.30;75.00
20680;DHT22;10499;47.494;7.608;2023-02-25T19:10:04;6.20;78.30
20680;DHT22;10499;47.494;7.608;2023-02-25T19:12:31;6.00;79.80
20680;DHT22;10499;47.494;7.608;2023-02-25T19:15:04;5.80;80.30
20680;DHT22;10499;47.494;7.608;2023-02-25T19:17:30;5.70;81.30
20680;DHT22;10499;47.494;7.608;2023-02-25T19:19:56;5.50;78.70
20680;DHT22;10499;47.494;7.608;2023-02-25T19:22:23;5.40;79.80
20680;DHT22;10499;47.494;7.608;2023-02-25T19:24:49;5.30;79.80
20680;DHT22;10499;47.494;7.608;2023-02-25T19:29:46;5.20;81.50
20680;DHT22;10499;47.494;7.608;2023-02-25T19:32:12;5.10;82.40
20680;DHT22;10499;47.494;7.608;2023-02-25T19:34:38;5.10;83.20
20680;DHT22;10499;47.494;7.608;2023-02-25T19:37:04;4.90;81.10
20680;DHT22;10499;47.494;7.608;2023-02-25T19:39:29;4.80;81.90
20680;DHT22;10499;47.494;7.608;2023-02-25T19:41:55;4.80;82.10
20680;DHT22;10499;47.494;7.608;2023-02-25T19:44:20;4.90;82.00
20680;DHT22;10499;47.494;7.608;2023-02-25T19:46:46;4.90;82.40
20680;DHT22;10499;47.494;7.608;2023-02-25T19:49:12;4.80;81.30
20680;DHT22;10499;47.494;7.608;2023-02-25T19:51:37;4.80;82.70
20680;DHT22;10499;47.494;7.608;2023-02-25T19:54:03;4.60;81.40
20680;DHT22;10499;47.494;7.608;2023-02-25T19:56:28;4.60;82.80
20680;DHT22;10499;47.494;7.608;2023-02-25T19:58:57;4.50;83.90
20680;DHT22;10499;47.494;7.608;2023-02-25T20:01:23;4.40;87.70
20680;DHT22;10499;47.494;7.608;2023-02-25T20:03:49;4.20;87.40
20680;DHT22;10499;47.494;7.608;2023-02-25T20:06:15;4.00;86.40
20680;DHT22;10499;47.494;7.608;2023-02-25T20:08:41;3.90;86.80
20680;DHT22;10499;47.494;7.608;2023-02-25T20:11:08;3.90;90.00
20680;DHT22;10499;47.494;7.608;2023-02-25T20:13:34;3.80;91.30
20680;DHT22;10499;47.494;7.608;2023-02-25T20:16:03;3.80;90.30
20680;DHT22;10499;47.494;7.608;2023-02-25T20:18:28;3.70;90.30
20680;DHT22;10499;47.494;7.608;2023-02-25T20:20:54;3.80;89.40
20680;DHT22;10499;47.494;7.608;2023-02-25T20:23:20;3.80;85.70
20680;DHT22;10499;47.494;7.608;2023-02-25T20:25:45;3.70;86.30
20680;DHT22;10499;47.494;7.608;2023-02-25T20:28:11;3.70;85.40
20680;DHT22;10499;47.494;7.608;2023-02-25T20:30:37;3.90;86.80
20680;DHT22;10499;47.494;7.608;2023-02-25T20:33:03;3.80;86.00
20680;DHT22;10499;47.494;7.608;2023-02-25T20:35:29;3.90;87.80
20680;DHT22;10499;47.494;7.608;2023-02-25T20:38:09;4.00;87.70
20680;DHT22;10499;47.494;7.608;2023-02-25T20:40:38;4.10;90.40
20680;DHT22;10499;47.494;7.608;2023-02-25T20:43:03;4.10;91.90
20680;DHT22;10499;47.494;7.608;2023-02-25T20:45:29;4.10;90.80
20680;DHT22;10499;47.494;7.608;2023-02-25T20:47:55;4.00;88.40
20680;DHT22;10499;47.494;7.608;2023-02-25T20:50:26;4.00;88.20
20680;DHT22;10499;47.494;7.608;2023-02-25T20:52:52;4.00;87.40
20680;DHT22;10499;47.494;7.608;2023-02-25T20:55:19;4.00;90.00
20680;DHT22;10499;47.494;7.608;2023-02-25T20:57:44;4.00;88.90
20680;DHT22;10499;47.494;7.608;2023-02-25T21:00:14;4.00;90.60
20680;DHT22;10499;47.494;7.608;2023-02-25T21:02:40;4.10;91.30
20680;DHT22;10499;47.494;7.608;2023-02-25T21:05:06;4.00;90.30
20680;DHT22;10499;47.494;7.608;2023-02-25T21:07:32;4.00;89.80
20680;DHT22;10499;47.494;7.608;2023-02-25T21:09:57;4.10;90.00
20680;DHT22;10499;47.494;7.608;2023-02-25T21:12:23;4.00;88.70
20680;DHT22;10499;47.494;7.608;2023-02-25T21:14:49;4.10;88.90
20680;DHT22;10499;47.494;7.608;2023-02-25T21:17:16;4.20;89.40
20680;DHT22;10499;47.494;7.608;2023-02-25T21:19:42;4.40;89.00
20680;DHT22;10499;47.494;7.608;2023-02-25T21:22:08;4.50;88.10
20680;DHT22;10499;47.494;7.608;2023-02-25T21:24:34;4.60;88.30
20680;DHT22;10499;47.494;7.608;2023-02-25T21:27:01;4.70;90.10
20680;DHT22;10499;47.494;7.608;2023-02-25T21:29:27;4.70;88.10
20680;DHT22;10499;47.494;7.608;2023-02-25T21:31:53;4.50;88.40
20680;DHT22;10499;47.494;7.608;2023-02-25T21:34:19;4.40;88.70
20680;DHT22;10499;47.494;7.608;2023-02-25T21:36:45;4.50;89.80
20680;DHT22;10499;47.494;7.608;2023-02-25T21:39:10;4.30;89.40
20680;DHT22;10499;47.494;7.608;2023-02-25T21:41:39;4.20;89.50
20680;DHT22;10499;47.494;7.608;2023-02-25T21:44:07;4.10;89.30
20680;DHT22;10499;47.494;7.608;2023-02-25T21:46:33;4.00;90.20
20680;DHT22;10499;47.494;7.608;2023-02-25T21:48:58;4.00;91.80
20680;DHT22;10499;47.494;7.608;2023-02-25T21:51:26;4.00;92.80
20680;DHT22;10499;47.494;7.608;2023-02-25T21:53:57;4.10;92.30
20680;DHT22;10499;47.494;7.608;2023-02-25T21:56:24;4.10;92.20
20680;DHT22;10499;47.494;7.608;2023-02-25T21:58:58;4.10;91.80
20680;DHT22;10499;47.494;7.608;2023-02-25T22:01:30;4.10;91.60
20680;DHT22;10499;47.494;7.608;2023-02-25T22:03:57;4.20;91.70
20680;DHT22;10499;47.494;7.608;2023-02-25T22:06:23;4.40;91.20
20680;DHT22;10499;47.494;7.608;2023-02-25T22:08:51;4.30;91.10
20680;DHT22;10499;47.494;7.608;2023-02-25T22:11:19;4.40;92.30
20680;DHT22;10499;47.494;7.608;2023-02-25T22:13:46;4.50;91.00
20680;DHT22;10499;47.494;7.608;2023-02-25T22:16:12;4.60;91.40
20680;DHT22;10499;47.494;7.608;2023-02-25T22:18:38;4.60;95.30
20680;DHT22;10499;47.494;7.608;2023-02-25T22:21:10;4.60;94.80
20680;DHT22;10499;47.494;7.608;2023-02-25T22:23:37;4.60;94.70
20680;DHT22;10499;47.494;7.608;2023-02-25T22:26:05;4.40;92.40
20680;DHT22;10499;47.494;7.608;2023-02-25T22:28:32;4.30;93.70
20680;DHT22;10499;47.494;7.608;2023-02-25T22:30:58;4.30;93.90
20680;DHT22;10499;47.494;7.608;2023-02-25T22:33:24;4.30;92.70
20680;DHT22;10499;47.494;7.608;2023-02-25T22:35:54;4.20;93.90
20680;DHT22;10499;47.494;7.608;2023-02-25T22:38:20;4.40;94.30
20680;DHT22;10499;47.494;7.608;2023-02-25T22:40:47;4.40;94.00
20680;DHT22;10499;47.494;7.608;2023-02-25T22:43:13;4.50;93.60
20680;DHT22;10499;47.494;7.608;2023-02-25T22:45:38;4.50;93.40
20680;DHT22;10499;47.494;7.608;2023-02-25T22:48:04;4.50;93.60
20680;DHT22;10499;47.494;7.608;2023-02-25T22:50:30;4.50;92.80
20680;DHT22;10499;47.494;7.608;2023-02-25T22:52:55;4.40;93.20
20680;DHT22;10499;47.494;7.608;2023-02-25T22:55:21;4.30;93.90
20680;DHT22;10499;47.494;7.608;2023-02-25T22:57:47;4.10;94.30
20680;DHT22;10499;47.494;7.608;2023-02-25T23:00:13;4.20;94.90
20680;DHT22;10499;47.494;7.608;2023-02-25T23:02:44;4.20;95.10